createdAt,value
2022-08-28T00:00:59.397Z,12.27
2022-08-28T00:02:01.151Z,10.45
2022-08-28T00:03:03.069Z,16.20
2022-08-28T00:04:07.450Z,12.23
2022-08-28T00:05:11.540Z,14.38
2022-08-28T00:06:13.480Z,15.73
2022-08-28T00:07:15.432Z,14.73
2022-08-28T00:08:17.361Z,14.00
2022-08-28T00:09:19.216Z,17.95
2022-08-28T00:10:22.557Z,23.55
2022-08-28T00:11:24.538Z,15.38
2022-08-28T00:12:27.135Z,15.32
2022-08-28T00:13:28.914Z,17.10
2022-08-28T00:14:31.290Z,19.55
2022-08-28T00:15:36.401Z,19.17
2022-08-28T00:16:38.648Z,16.98
2022-08-28T00:17:40.734Z,18.37
2022-08-28T00:18:42.435Z,20.85
2022-08-28T00:19:44.432Z,19.92
2022-08-28T00:20:47.337Z,22.58
2022-08-28T00:21:49.269Z,16.35
2022-08-28T00:22:51.390Z,21.90
2022-08-28T00:23:53.597Z,24.20
2022-08-28T00:24:55.681Z,20.77
2022-08-28T00:25:57.510Z,17.38
2022-08-28T00:27:18.554Z,21.45
2022-08-28T00:28:24.320Z,19.57
2022-08-28T00:29:26.500Z,21.65
2022-08-28T00:30:36.431Z,25.65
2022-08-28T00:31:41.437Z,18.02
2022-08-28T00:32:43.517Z,24.17
2022-08-28T00:33:47.525Z,24.23
2022-08-28T00:34:51.612Z,23.67
2022-08-28T00:35:54.986Z,23.77
2022-08-28T00:36:56.732Z,25.23
2022-08-28T00:37:58.595Z,22.05
2022-08-28T00:39:01.000Z,23.07
2022-08-28T00:40:02.973Z,22.48
2022-08-28T00:41:05.437Z,21.60
2022-08-28T00:42:07.460Z,19.42
2022-08-28T00:43:11.259Z,27.08
2022-08-28T00:44:21.708Z,27.67
2022-08-28T00:45:25.265Z,24.20
2022-08-28T00:46:27.003Z,24.95
2022-08-28T00:47:28.750Z,25.48
2022-08-28T00:48:30.600Z,22.75
2022-08-28T00:49:35.956Z,24.10
2022-08-28T00:50:56.885Z,26.92
2022-08-28T00:52:08.616Z,20.55
2022-08-28T00:53:13.594Z,23.58
2022-08-28T00:54:15.423Z,24.85
2022-08-28T00:55:22.308Z,20.73
2022-08-28T00:56:25.349Z,25.98
2022-08-28T00:57:38.628Z,20.20
2022-08-28T00:58:43.696Z,24.42
2022-08-28T00:59:45.458Z,25.02
2022-08-28T01:00:49.943Z,24.87
2022-08-28T01:01:58.050Z,28.20
2022-08-28T01:03:00.991Z,23.60
2022-08-28T01:04:06.258Z,23.77
2022-08-28T01:05:09.759Z,19.92
2022-08-28T01:06:15.045Z,20.10
2022-08-28T01:07:17.941Z,26.55
2022-08-28T01:08:20.317Z,23.95
2022-08-28T01:09:24.491Z,20.63
2022-08-28T01:10:29.199Z,23.02
2022-08-28T01:11:32.444Z,27.97
2022-08-28T01:12:35.024Z,24.58
2022-08-28T01:13:39.698Z,24.75
2022-08-28T01:14:45.869Z,23.30
2022-08-28T01:15:48.574Z,24.55
2022-08-28T01:16:55.605Z,21.75
2022-08-28T01:18:05.942Z,23.58
2022-08-28T01:19:18.313Z,20.75
2022-08-28T01:20:24.226Z,24.48
2022-08-28T01:21:54.905Z,23.45
2022-08-28T01:23:17.892Z,22.43
2022-08-28T01:24:20.052Z,23.73
2022-08-28T01:25:24.232Z,24.35
2022-08-28T01:26:28.258Z,25.58
2022-08-28T01:27:30.076Z,27.70
2022-08-28T01:28:31.901Z,22.05
2022-08-28T01:29:33.825Z,19.40
2022-08-28T01:30:36.165Z,21.08
2022-08-28T01:31:40.581Z,23.67
2022-08-28T01:32:47.294Z,21.50
2022-08-28T01:33:49.056Z,19.87
2022-08-28T01:34:50.779Z,22.98
2022-08-28T01:35:52.537Z,21.08
2022-08-28T01:36:54.322Z,22.67
2022-08-28T01:37:56.468Z,22.55
2022-08-28T01:39:07.177Z,22.25
2022-08-28T01:40:11.497Z,25.52
2022-08-28T01:41:14.030Z,24.17
2022-08-28T01:42:16.211Z,23.98
2022-08-28T01:43:23.081Z,22.55
2022-08-28T01:44:26.793Z,22.27
2022-08-28T01:45:28.924Z,23.80
2022-08-28T01:46:31.739Z,23.70
2022-08-28T01:47:33.616Z,28.00
2022-08-28T01:48:37.664Z,26.10
2022-08-28T01:49:39.366Z,25.52
2022-08-28T01:50:41.891Z,26.48
2022-08-28T01:51:43.812Z,26.88
2022-08-28T01:52:45.594Z,32.20
2022-08-28T01:53:47.335Z,21.83
2022-08-28T01:54:49.433Z,25.10
2022-08-28T01:55:52.550Z,25.48
2022-08-28T01:56:55.015Z,24.67
2022-08-28T01:57:56.997Z,20.75
2022-08-28T01:59:01.448Z,28.67
2022-08-28T02:00:03.791Z,29.88
2022-08-28T02:01:17.565Z,25.42
2022-08-28T02:02:19.339Z,32.95
2022-08-28T02:03:21.221Z,25.27
2022-08-28T02:04:31.795Z,27.73
2022-08-28T02:05:35.599Z,26.60
2022-08-28T02:06:37.997Z,26.17
2022-08-28T02:07:39.723Z,31.55
2022-08-28T02:08:42.228Z,29.13
2022-08-28T02:09:44.032Z,33.17
2022-08-28T02:10:46.162Z,27.75
2022-08-28T02:11:47.883Z,31.83
2022-08-28T02:12:49.988Z,23.70
2022-08-28T02:13:54.323Z,26.13
2022-08-28T02:14:57.971Z,28.25
2022-08-28T02:16:00.805Z,22.17
2022-08-28T02:17:02.994Z,27.67
2022-08-28T02:18:05.888Z,28.17
2022-08-28T02:19:07.687Z,25.23
2022-08-28T02:20:10.022Z,27.23
2022-08-28T02:21:12.567Z,29.63
2022-08-28T02:22:14.294Z,24.50
2022-08-28T02:23:16.381Z,25.83
2022-08-28T02:24:18.749Z,24.98
2022-08-28T02:25:21.069Z,27.38
2022-08-28T02:26:23.506Z,25.37
2022-08-28T02:27:25.534Z,27.98
2022-08-28T02:28:27.468Z,27.33
2022-08-28T02:29:29.343Z,28.60
2022-08-28T02:30:31.475Z,34.95
2022-08-28T02:31:33.252Z,28.25
2022-08-28T02:32:35.620Z,27.40
2022-08-28T02:33:39.804Z,31.80
2022-08-28T02:34:43.555Z,29.15
2022-08-28T02:35:45.277Z,31.27
2022-08-28T02:36:47.431Z,27.70
2022-08-28T02:37:49.451Z,26.42
2022-08-28T02:38:56.994Z,28.10
2022-08-28T02:39:59.714Z,23.85
2022-08-28T02:41:04.224Z,27.50
2022-08-28T02:42:06.764Z,26.15
2022-08-28T02:43:08.672Z,22.52
2022-08-28T02:44:10.473Z,31.90
2022-08-28T02:45:14.123Z,26.42
2022-08-28T02:46:16.418Z,28.33
2022-08-28T02:47:18.839Z,25.17
2022-08-28T02:48:20.657Z,26.75
2022-08-28T02:49:23.967Z,28.42
2022-08-28T02:50:26.105Z,22.50
2022-08-28T02:51:33.488Z,28.60
2022-08-28T02:52:37.367Z,29.02
2022-08-28T02:53:40.972Z,30.95
2022-08-28T02:54:42.673Z,28.15
2022-08-28T02:55:45.080Z,20.77
2022-08-28T02:56:46.796Z,29.33
2022-08-28T02:57:48.848Z,24.70
2022-08-28T02:58:50.655Z,22.75
2022-08-28T02:59:52.368Z,26.50
2022-08-28T03:00:54.617Z,29.65
2022-08-28T03:01:56.349Z,29.83
2022-08-28T03:02:58.194Z,26.23
2022-08-28T03:04:03.007Z,29.42
2022-08-28T03:05:05.170Z,25.92
2022-08-28T03:06:08.156Z,26.60
2022-08-28T03:07:13.540Z,20.90
2022-08-28T03:08:15.423Z,27.03
2022-08-28T03:09:17.134Z,29.85
2022-08-28T03:10:19.606Z,28.48
2022-08-28T03:11:21.563Z,26.77
2022-08-28T03:12:24.384Z,23.00
2022-08-28T03:13:27.224Z,28.25
2022-08-28T03:14:29.489Z,25.60
2022-08-28T03:15:31.352Z,23.17
2022-08-28T03:16:34.204Z,26.55
2022-08-28T03:17:37.018Z,26.58
2022-08-28T03:18:39.065Z,24.67
2022-08-28T03:19:40.776Z,21.23
2022-08-28T03:20:42.521Z,24.02
2022-08-28T03:21:44.447Z,21.02
2022-08-28T03:23:04.912Z,21.95
2022-08-28T03:24:07.351Z,22.40
2022-08-28T03:25:10.317Z,19.70
2022-08-28T03:26:15.448Z,20.27
2022-08-28T03:27:17.265Z,19.45
2022-08-28T03:28:19.327Z,22.05
2022-08-28T03:29:21.073Z,23.27
2022-08-28T03:30:23.782Z,27.38
2022-08-28T03:31:28.182Z,25.98
2022-08-28T03:32:31.719Z,21.77
2022-08-28T03:33:33.929Z,18.27
2022-08-28T03:34:35.961Z,20.10
2022-08-28T03:35:37.766Z,22.70
2022-08-28T03:36:39.463Z,25.88
2022-08-28T03:37:41.401Z,18.35
2022-08-28T03:38:43.677Z,20.98
2022-08-28T03:39:45.665Z,24.23
2022-08-28T03:40:47.537Z,21.63
2022-08-28T03:41:49.210Z,20.67
2022-08-28T03:42:53.141Z,16.95
2022-08-28T03:43:57.374Z,21.27
2022-08-28T03:44:59.055Z,21.85
2022-08-28T03:46:04.727Z,25.05
2022-08-28T03:47:06.492Z,18.13
2022-08-28T03:48:08.595Z,20.35
2022-08-28T03:49:11.075Z,23.30
2022-08-28T03:50:14.296Z,22.30
2022-08-28T03:51:24.625Z,19.48
2022-08-28T03:52:31.574Z,22.92
2022-08-28T03:53:33.281Z,19.50
2022-08-28T03:54:35.184Z,18.20
2022-08-28T03:55:36.976Z,21.42
2022-08-28T03:56:42.343Z,22.20
2022-08-28T03:57:44.098Z,17.40
2022-08-28T03:58:45.850Z,19.27
2022-08-28T03:59:48.846Z,21.85
2022-08-28T04:00:51.145Z,17.53
2022-08-28T04:01:52.928Z,23.80
2022-08-28T04:02:54.737Z,20.50
2022-08-28T04:03:56.651Z,19.70
2022-08-28T04:04:58.393Z,21.55
2022-08-28T04:06:00.695Z,16.60
2022-08-28T04:07:02.388Z,19.65
2022-08-28T04:08:04.349Z,21.92
2022-08-28T04:09:06.678Z,20.75
2022-08-28T04:10:08.885Z,24.65
2022-08-28T04:11:10.802Z,21.10
2022-08-28T04:12:13.064Z,21.02
2022-08-28T04:13:17.519Z,23.83
2022-08-28T04:14:19.400Z,16.00
2022-08-28T04:15:21.289Z,23.80
2022-08-28T04:16:23.049Z,20.67
2022-08-28T04:17:25.468Z,19.70
2022-08-28T04:18:29.942Z,18.70
2022-08-28T04:19:31.724Z,24.60
2022-08-28T04:20:33.598Z,17.73
2022-08-28T04:21:35.374Z,16.90
2022-08-28T04:22:37.549Z,22.50
2022-08-28T04:23:43.129Z,17.30
2022-08-28T04:24:44.849Z,18.48
2022-08-28T04:25:46.559Z,19.33
2022-08-28T04:26:48.543Z,20.10
2022-08-28T04:27:51.796Z,18.90
2022-08-28T04:28:56.168Z,20.58
2022-08-28T04:29:58.882Z,21.00
2022-08-28T04:31:01.082Z,18.30
2022-08-28T04:32:03.274Z,18.67
2022-08-28T04:33:06.452Z,15.15
2022-08-28T04:34:11.240Z,19.50
2022-08-28T04:35:13.945Z,14.68
2022-08-28T04:36:18.766Z,16.58
2022-08-28T04:37:20.498Z,21.20
2022-08-28T04:38:24.773Z,20.65
2022-08-28T04:39:26.480Z,19.15
2022-08-28T04:40:28.641Z,16.50
2022-08-28T04:41:30.490Z,24.90
2022-08-28T04:42:32.302Z,17.33
2022-08-28T04:43:34.968Z,14.85
2022-08-28T04:44:36.761Z,15.85
2022-08-28T04:45:43.420Z,16.40
2022-08-28T04:46:45.163Z,19.60
2022-08-28T04:47:50.156Z,18.50
2022-08-28T04:48:52.162Z,14.85
2022-08-28T04:49:55.234Z,13.93
2022-08-28T04:50:56.985Z,19.63
2022-08-28T04:51:58.679Z,16.13
2022-08-28T04:53:00.540Z,18.53
2022-08-28T04:54:03.417Z,18.63
2022-08-28T04:55:05.517Z,15.60
2022-08-28T04:56:10.411Z,14.60
2022-08-28T04:57:12.142Z,16.95
2022-08-28T04:58:14.632Z,15.38
2022-08-28T04:59:16.651Z,22.25
2022-08-28T05:00:18.520Z,22.73
2022-08-28T05:01:24.396Z,14.98
2022-08-28T05:02:26.465Z,12.88
2022-08-28T05:03:28.663Z,14.40
2022-08-28T05:04:30.387Z,11.90
2022-08-28T05:05:32.395Z,12.77
2022-08-28T05:06:34.464Z,21.17
2022-08-28T05:07:36.152Z,18.42
2022-08-28T05:08:37.882Z,17.48
2022-08-28T05:09:39.615Z,14.10
2022-08-28T05:10:42.161Z,22.60
2022-08-28T05:11:45.400Z,15.65
2022-08-28T05:12:47.304Z,14.77
2022-08-28T05:13:50.971Z,19.23
2022-08-28T05:14:56.189Z,16.23
2022-08-28T05:15:58.025Z,12.52
2022-08-28T05:16:59.862Z,21.55
2022-08-28T05:18:01.567Z,15.77
2022-08-28T05:19:03.463Z,17.80
2022-08-28T05:20:06.111Z,10.23
2022-08-28T05:21:21.867Z,14.18
2022-08-28T05:22:23.734Z,10.10
2022-08-28T05:23:25.895Z,9.38
2022-08-28T05:24:27.691Z,9.97
2022-08-28T05:25:29.420Z,17.63
2022-08-28T05:26:31.215Z,22.05
2022-08-28T05:27:32.956Z,11.27
2022-08-28T05:28:34.672Z,16.75
2022-08-28T05:29:36.582Z,17.67
2022-08-28T05:30:40.639Z,15.85
2022-08-28T05:31:42.688Z,20.20
2022-08-28T05:32:45.752Z,10.27
2022-08-28T05:33:49.537Z,10.55
2022-08-28T05:34:51.276Z,15.07
2022-08-28T05:35:52.957Z,11.23
2022-08-28T05:36:54.723Z,15.18
2022-08-28T05:37:56.414Z,13.35
2022-08-28T05:38:58.740Z,11.82
2022-08-28T05:40:00.563Z,10.77
2022-08-28T05:41:03.269Z,12.35
2022-08-28T05:42:05.620Z,11.73
2022-08-28T05:43:07.312Z,11.75
2022-08-28T05:44:12.209Z,10.55
2022-08-28T05:45:13.965Z,9.87
2022-08-28T05:46:17.292Z,12.68
2022-08-28T05:47:21.550Z,11.80
2022-08-28T05:48:23.658Z,14.45
2022-08-28T05:49:25.671Z,12.02
2022-08-28T05:50:27.851Z,24.42
2022-08-28T05:51:29.683Z,16.83
2022-08-28T05:52:31.382Z,19.95
2022-08-28T05:53:35.722Z,13.98
2022-08-28T05:54:37.475Z,16.52
2022-08-28T05:55:41.925Z,12.27
2022-08-28T05:56:45.509Z,12.77
2022-08-28T05:57:47.287Z,14.13
2022-08-28T05:58:49.616Z,10.13
2022-08-28T05:59:51.389Z,14.27
2022-08-28T06:00:53.199Z,10.77
2022-08-28T06:01:55.024Z,15.07
2022-08-28T06:02:56.733Z,8.60
2022-08-28T06:04:05.213Z,12.15
2022-08-28T06:05:07.427Z,11.18
2022-08-28T06:06:10.123Z,9.67
2022-08-28T06:07:13.723Z,14.75
2022-08-28T06:08:15.466Z,12.18
2022-08-28T06:09:29.759Z,12.60
2022-08-28T06:10:31.730Z,13.43
2022-08-28T06:11:34.211Z,13.90
2022-08-28T06:12:36.759Z,15.90
2022-08-28T06:13:38.861Z,13.55
2022-08-28T06:14:40.584Z,15.18
2022-08-28T06:15:44.425Z,15.43
2022-08-28T06:16:48.634Z,16.60
2022-08-28T06:17:50.471Z,12.60
2022-08-28T06:18:52.233Z,14.52
2022-08-28T06:19:54.513Z,13.27
2022-08-28T06:20:56.218Z,14.93
2022-08-28T06:22:00.402Z,17.17
2022-08-28T06:23:02.081Z,13.38
2022-08-28T06:24:04.511Z,13.70
2022-08-28T06:25:08.177Z,14.32
2022-08-28T06:26:10.219Z,16.30
2022-08-28T06:27:11.905Z,10.23
2022-08-28T06:28:18.830Z,11.73
2022-08-28T06:29:22.244Z,14.68
2022-08-28T06:30:26.666Z,10.65
2022-08-28T06:31:33.505Z,17.65
2022-08-28T06:32:35.495Z,12.88
2022-08-28T06:33:37.795Z,14.13
2022-08-28T06:34:39.486Z,13.52
2022-08-28T06:35:48.090Z,8.15
2022-08-28T06:36:53.812Z,8.38
2022-08-28T06:37:55.970Z,11.23
2022-08-28T06:38:58.814Z,12.20
2022-08-28T06:40:00.564Z,16.10
2022-08-28T06:41:02.578Z,6.80
2022-08-28T06:42:05.478Z,23.40
2022-08-28T06:43:08.031Z,6.85
2022-08-28T06:44:12.542Z,13.90
2022-08-28T06:45:14.491Z,12.02
2022-08-28T06:46:16.835Z,12.75
2022-08-28T06:47:18.601Z,25.67
2022-08-28T06:48:23.605Z,12.83
2022-08-28T06:49:25.298Z,8.18
2022-08-28T06:50:27.191Z,12.68
2022-08-28T06:51:29.638Z,15.90
2022-08-28T06:52:31.504Z,15.80
2022-08-28T06:53:33.580Z,11.68
2022-08-28T06:54:35.302Z,8.07
2022-08-28T06:55:37.734Z,8.13
2022-08-28T06:56:39.561Z,13.07
2022-08-28T06:57:41.338Z,15.27
2022-08-28T06:58:50.362Z,14.30
2022-08-28T06:59:57.857Z,8.85
2022-08-28T07:01:10.537Z,16.00
2022-08-28T07:02:14.023Z,15.85
2022-08-28T07:03:15.857Z,12.15
2022-08-28T07:04:19.453Z,8.88
2022-08-28T07:05:21.459Z,13.40
2022-08-28T07:06:23.918Z,9.90
2022-08-28T07:07:31.558Z,14.10
2022-08-28T07:08:36.010Z,11.15
2022-08-28T07:09:37.734Z,11.43
2022-08-28T07:10:39.463Z,16.70
2022-08-28T07:11:44.803Z,11.77
2022-08-28T07:12:48.873Z,14.85
2022-08-28T07:13:52.640Z,12.88
2022-08-28T07:14:54.373Z,13.65
2022-08-28T07:15:56.431Z,12.23
2022-08-28T07:16:58.215Z,14.70
2022-08-28T07:18:00.621Z,17.83
2022-08-28T07:19:04.858Z,8.15
2022-08-28T07:20:07.287Z,10.03
2022-08-28T07:21:12.360Z,16.23
2022-08-28T07:22:14.366Z,13.35
2022-08-28T07:23:16.061Z,11.82
2022-08-28T07:24:18.427Z,14.20
2022-08-28T07:25:20.168Z,11.15
2022-08-28T07:26:24.099Z,22.35
2022-08-28T07:27:25.850Z,15.23
2022-08-28T07:28:27.619Z,10.60
2022-08-28T07:29:29.437Z,14.13
2022-08-28T07:30:31.128Z,15.83
2022-08-28T07:31:32.950Z,13.88
2022-08-28T07:32:34.747Z,14.57
2022-08-28T07:33:37.818Z,11.77
2022-08-28T07:34:41.075Z,15.30
2022-08-28T07:35:45.943Z,17.55
2022-08-28T07:36:48.208Z,11.20
2022-08-28T07:37:49.994Z,11.50
2022-08-28T07:38:51.845Z,15.15
2022-08-28T07:39:55.541Z,9.57
2022-08-28T07:40:57.563Z,13.00
2022-08-28T07:41:59.295Z,11.93
2022-08-28T07:43:19.558Z,11.20
2022-08-28T07:44:40.154Z,9.65
2022-08-28T07:45:42.419Z,10.95
2022-08-28T07:46:45.070Z,12.43
2022-08-28T07:47:47.141Z,15.27
2022-08-28T07:48:49.165Z,12.77
2022-08-28T07:49:53.434Z,15.40
2022-08-28T07:50:55.218Z,15.18
2022-08-28T07:51:57.420Z,8.87
2022-08-28T07:52:59.171Z,16.67
2022-08-28T07:54:01.800Z,15.05
2022-08-28T07:55:05.579Z,13.98
2022-08-28T07:56:07.561Z,11.40
2022-08-28T07:57:10.288Z,18.23
2022-08-28T07:58:13.732Z,16.00
2022-08-28T07:59:17.490Z,11.82
2022-08-28T08:00:21.479Z,14.80
2022-08-28T08:01:23.376Z,10.45
2022-08-28T08:02:25.340Z,16.07
2022-08-28T08:03:30.553Z,12.25
2022-08-28T08:04:32.471Z,10.25
2022-08-28T08:05:34.237Z,14.82
2022-08-28T08:06:37.437Z,13.75
2022-08-28T08:07:39.929Z,11.15
2022-08-28T08:08:45.985Z,9.70
2022-08-28T08:09:47.699Z,9.30
2022-08-28T08:11:04.950Z,11.82
2022-08-28T08:12:10.352Z,16.38
2022-08-28T08:13:12.253Z,11.20
2022-08-28T08:14:14.536Z,16.13
2022-08-28T08:15:17.185Z,12.35
2022-08-28T08:16:21.659Z,13.80
2022-08-28T08:17:23.509Z,14.60
2022-08-28T08:18:25.239Z,12.70
2022-08-28T08:19:26.939Z,7.07
2022-08-28T08:20:28.784Z,13.93
2022-08-28T08:21:30.972Z,5.72
2022-08-28T08:22:33.286Z,14.20
2022-08-28T08:23:35.956Z,12.10
2022-08-28T08:24:37.694Z,12.40
2022-08-28T08:25:39.478Z,16.67
2022-08-28T08:26:46.986Z,10.23
2022-08-28T08:28:00.741Z,8.68
2022-08-28T08:29:02.627Z,17.65
2022-08-28T08:30:04.904Z,11.82
2022-08-28T08:31:21.377Z,15.15
2022-08-28T08:32:23.220Z,12.93
2022-08-28T08:33:24.976Z,11.52
2022-08-28T08:34:26.843Z,14.97
2022-08-28T08:35:28.549Z,11.98
2022-08-28T08:36:33.102Z,16.45
2022-08-28T08:37:34.817Z,13.93
2022-08-28T08:38:37.451Z,12.20
2022-08-28T08:39:41.576Z,11.07
2022-08-28T08:40:43.420Z,11.02
2022-08-28T08:41:51.758Z,13.40
2022-08-28T08:42:57.054Z,7.25
2022-08-28T08:44:01.853Z,12.10
2022-08-28T08:45:04.314Z,13.17
2022-08-28T08:46:07.259Z,13.05
2022-08-28T08:47:33.506Z,9.73
2022-08-28T08:48:37.415Z,13.02
2022-08-28T08:49:43.074Z,16.13
2022-08-28T08:50:44.973Z,10.80
2022-08-28T08:52:25.533Z,13.68
2022-08-28T08:53:43.196Z,16.38
2022-08-28T08:55:01.154Z,15.38
2022-08-28T08:56:05.623Z,8.85
2022-08-28T08:57:10.652Z,14.77
2022-08-28T08:58:22.260Z,16.95
2022-08-28T08:59:30.219Z,9.57
2022-08-28T09:00:52.141Z,13.45
2022-08-28T09:02:07.048Z,14.15
2022-08-28T09:03:32.590Z,13.43
2022-08-28T09:04:46.360Z,12.13
2022-08-28T09:06:14.370Z,10.18
2022-08-28T09:07:18.857Z,15.27
2022-08-28T09:08:33.976Z,14.02
2022-08-28T09:09:40.980Z,13.60
2022-08-28T09:10:51.229Z,20.50
2022-08-28T09:11:59.904Z,13.02
2022-08-28T09:13:28.325Z,9.63
2022-08-28T09:14:57.499Z,14.43
2022-08-28T09:16:00.426Z,14.52
2022-08-28T09:17:04.173Z,14.57
2022-08-28T09:18:23.621Z,14.85
2022-08-28T09:19:25.609Z,8.50
2022-08-28T09:20:32.890Z,15.25
2022-08-28T09:21:40.669Z,12.97
2022-08-28T09:22:46.768Z,7.28
2022-08-28T09:23:48.504Z,16.13
2022-08-28T09:24:51.590Z,6.75
2022-08-28T09:26:05.958Z,13.90
2022-08-28T09:27:29.320Z,14.40
2022-08-28T09:28:37.423Z,12.45
2022-08-28T09:29:47.084Z,10.68
2022-08-28T09:31:12.846Z,12.80
2022-08-28T09:32:29.837Z,11.27
2022-08-28T09:33:47.461Z,8.43
2022-08-28T09:35:24.518Z,28.67
2022-08-28T09:36:31.956Z,10.05
2022-08-28T09:37:36.986Z,11.05
2022-08-28T09:38:39.131Z,7.60
2022-08-28T09:39:40.916Z,14.10
2022-08-28T09:41:01.156Z,15.80
2022-08-28T09:42:40.861Z,12.70
2022-08-28T09:43:46.415Z,10.98
2022-08-28T09:44:52.049Z,12.70
2022-08-28T09:46:20.709Z,10.40
2022-08-28T09:47:46.606Z,8.07
2022-08-28T09:48:52.371Z,10.20
2022-08-28T09:49:54.126Z,13.32
2022-08-28T09:51:03.715Z,17.10
2022-08-28T09:52:23.158Z,16.15
2022-08-28T09:53:28.448Z,11.38
2022-08-28T09:54:41.213Z,16.35
2022-08-28T09:56:04.244Z,11.82
2022-08-28T09:57:06.034Z,18.45
2022-08-28T09:58:08.939Z,9.83
2022-08-28T09:59:14.207Z,8.70
2022-08-28T10:00:16.163Z,14.32
2022-08-28T10:01:33.112Z,8.77
2022-08-28T10:02:47.778Z,16.08
2022-08-28T10:03:58.819Z,14.75
2022-08-28T10:05:09.043Z,9.63
2022-08-28T10:06:32.058Z,14.65
2022-08-28T10:07:44.001Z,16.65
2022-08-28T10:08:59.290Z,29.65
2022-08-28T10:10:36.220Z,9.20
2022-08-28T10:11:52.926Z,9.57
2022-08-28T10:13:21.783Z,13.70
2022-08-28T10:14:35.035Z,13.73
2022-08-28T10:15:49.524Z,13.85
2022-08-28T10:17:29.104Z,14.68
2022-08-28T10:18:42.208Z,13.70
2022-08-28T10:19:52.245Z,15.30
2022-08-28T10:21:22.165Z,9.82
2022-08-28T10:22:28.785Z,8.55
2022-08-28T10:24:00.245Z,9.73
2022-08-28T10:25:17.922Z,10.55
2022-08-28T10:26:40.520Z,11.10
2022-08-28T10:28:01.819Z,15.75
2022-08-28T10:29:21.642Z,13.68
2022-08-28T10:30:26.488Z,9.15
2022-08-28T10:31:50.797Z,8.65
2022-08-28T10:33:27.800Z,5.30
2022-08-28T10:34:52.154Z,7.60
2022-08-28T10:36:07.538Z,6.63
2022-08-28T10:37:56.526Z,14.27
2022-08-28T10:39:13.985Z,9.25
2022-08-28T10:40:23.827Z,9.60
2022-08-28T10:41:33.677Z,10.60
2022-08-28T10:42:40.661Z,9.23
2022-08-28T10:43:48.128Z,10.63
2022-08-28T10:45:04.605Z,13.20
2022-08-28T10:46:21.324Z,17.48
2022-08-28T10:47:26.420Z,12.07
2022-08-28T10:48:37.830Z,13.82
2022-08-28T10:49:46.222Z,9.93
2022-08-28T10:50:53.683Z,10.88
2022-08-28T10:52:04.636Z,11.82
2022-08-28T10:53:10.423Z,8.70
2022-08-28T10:54:32.832Z,10.23
2022-08-28T10:56:02.862Z,11.63
2022-08-28T10:57:39.449Z,12.25
2022-08-28T10:58:41.991Z,10.27
2022-08-28T10:59:48.507Z,15.48
2022-08-28T11:00:51.788Z,14.60
2022-08-28T11:01:53.917Z,8.37
2022-08-28T11:03:00.933Z,10.90
2022-08-28T11:04:08.331Z,9.68
2022-08-28T11:05:11.325Z,7.75
2022-08-28T11:06:22.856Z,9.88
2022-08-28T11:07:49.406Z,10.32
2022-08-28T11:08:57.803Z,7.82
2022-08-28T11:10:21.952Z,10.15
2022-08-28T11:11:43.070Z,9.73
2022-08-28T11:12:45.146Z,8.70
2022-08-28T11:13:52.874Z,12.00
2022-08-28T11:14:54.751Z,8.63
2022-08-28T11:15:57.020Z,9.70
2022-08-28T11:17:08.515Z,12.18
2022-08-28T11:18:13.552Z,9.98
2022-08-28T11:19:29.453Z,7.57
2022-08-28T11:20:31.810Z,7.93
2022-08-28T11:21:36.009Z,11.18
2022-08-28T11:22:55.775Z,6.35
2022-08-28T11:24:06.288Z,12.48
2022-08-28T11:25:26.573Z,9.80
2022-08-28T11:26:47.936Z,6.68
2022-08-28T11:28:17.765Z,6.65
2022-08-28T11:29:57.573Z,16.45
2022-08-28T11:31:05.159Z,8.10
2022-08-28T11:32:36.472Z,14.40
2022-08-28T11:33:45.235Z,10.68
2022-08-28T11:35:01.953Z,10.20
2022-08-28T11:36:19.841Z,7.55
2022-08-28T11:37:47.507Z,12.00
2022-08-28T11:38:52.242Z,7.03
2022-08-28T11:40:16.555Z,14.43
2022-08-28T11:41:24.217Z,8.73
2022-08-28T11:42:34.882Z,8.80
2022-08-28T11:43:39.523Z,10.90
2022-08-28T11:44:45.015Z,9.35
2022-08-28T11:45:47.601Z,8.73
2022-08-28T11:46:51.786Z,8.40
2022-08-28T11:47:56.532Z,11.10
2022-08-28T11:49:28.493Z,9.65
2022-08-28T11:50:31.887Z,11.83
2022-08-28T11:51:56.619Z,8.27
2022-08-28T11:53:09.184Z,8.82
2022-08-28T11:54:39.835Z,9.75
2022-08-28T11:56:02.837Z,8.40
2022-08-28T11:57:28.207Z,10.93
2022-08-28T11:59:07.999Z,9.20
2022-08-28T12:00:36.329Z,6.43
2022-08-28T12:01:39.262Z,6.57
2022-08-28T12:02:41.076Z,6.55
2022-08-28T12:04:06.176Z,9.17
2022-08-28T12:05:15.938Z,7.93
2022-08-28T12:06:52.837Z,9.38
2022-08-28T12:07:55.110Z,7.57
2022-08-28T12:08:56.796Z,5.35
2022-08-28T12:10:04.261Z,7.78
2022-08-28T12:11:06.818Z,9.10
2022-08-28T12:12:13.871Z,8.02
2022-08-28T12:13:44.557Z,6.35
2022-08-28T12:14:46.229Z,9.95
2022-08-28T12:16:05.038Z,10.47
2022-08-28T12:17:08.784Z,7.30
2022-08-28T12:18:13.246Z,6.90
2022-08-28T12:19:28.888Z,7.97
2022-08-28T12:21:04.249Z,14.35
2022-08-28T12:22:14.195Z,8.88
2022-08-28T12:23:43.180Z,7.28
2022-08-28T12:24:50.471Z,9.13
2022-08-28T12:26:04.110Z,8.27
2022-08-28T12:27:07.998Z,9.75
2022-08-28T12:28:27.813Z,8.90
2022-08-28T12:29:37.580Z,11.98
2022-08-28T12:30:59.651Z,12.60
2022-08-28T12:32:28.528Z,11.95
2022-08-28T12:34:04.002Z,5.10
2022-08-28T12:35:20.629Z,9.30
2022-08-28T12:36:28.719Z,6.40
2022-08-28T12:37:53.805Z,6.53
2022-08-28T12:38:58.434Z,10.80
2022-08-28T12:40:06.453Z,8.45
2022-08-28T12:41:17.106Z,11.87
2022-08-28T12:42:30.520Z,11.10
2022-08-28T12:43:35.724Z,9.73
2022-08-28T12:44:48.568Z,7.30
2022-08-28T12:45:56.399Z,9.82
2022-08-28T12:46:59.140Z,10.23
2022-08-28T12:48:08.582Z,9.13
2022-08-28T12:49:29.923Z,6.45
2022-08-28T12:50:36.427Z,8.25
2022-08-28T12:51:38.263Z,6.25
2022-08-28T12:52:49.066Z,6.40
2022-08-28T12:53:56.618Z,8.75
2022-08-28T12:54:58.873Z,10.45
2022-08-28T12:56:00.936Z,6.90
2022-08-28T12:57:29.497Z,8.18
2022-08-28T12:58:34.739Z,10.02
2022-08-28T12:59:45.070Z,11.05
2022-08-28T13:00:55.219Z,5.72
2022-08-28T13:02:04.619Z,8.52
2022-08-28T13:03:07.615Z,9.48
2022-08-28T13:04:33.253Z,10.57
2022-08-28T13:05:40.293Z,10.15
2022-08-28T13:06:42.047Z,7.60
2022-08-28T13:07:49.637Z,6.97
2022-08-28T13:08:59.330Z,9.60
2022-08-28T13:10:18.052Z,8.80
2022-08-28T13:11:20.506Z,7.35
2022-08-28T13:12:55.951Z,8.82
2022-08-28T13:13:59.115Z,10.75
2022-08-28T13:15:01.572Z,10.50
2022-08-28T13:16:05.573Z,8.27
2022-08-28T13:17:07.760Z,10.00
2022-08-28T13:18:10.220Z,8.18
2022-08-28T13:19:31.851Z,6.00
2022-08-28T13:20:36.756Z,7.18
2022-08-28T13:21:55.446Z,7.85
2022-08-28T13:22:58.352Z,9.93
2022-08-28T13:24:20.629Z,7.32
2022-08-28T13:25:25.867Z,8.13
2022-08-28T13:26:34.598Z,8.48
2022-08-28T13:27:36.482Z,6.40
2022-08-28T13:28:43.824Z,7.43
2022-08-28T13:30:14.529Z,6.93
2022-08-28T13:31:30.972Z,8.40
2022-08-28T13:32:36.760Z,13.15
2022-08-28T13:33:39.002Z,10.65
2022-08-28T13:35:01.753Z,6.10
2022-08-28T13:36:21.704Z,8.10
2022-08-28T13:37:45.366Z,8.98
2022-08-28T13:38:47.086Z,10.27
2022-08-28T13:39:48.899Z,11.20
2022-08-28T13:40:58.086Z,6.88
2022-08-28T13:42:07.297Z,9.25
2022-08-28T13:43:11.369Z,9.52
2022-08-28T13:44:26.882Z,6.85
2022-08-28T13:45:31.611Z,9.07
2022-08-28T13:46:44.430Z,9.52
2022-08-28T13:47:46.174Z,18.42
2022-08-28T13:48:47.867Z,7.57
2022-08-28T13:49:49.585Z,9.35
2022-08-28T13:51:10.380Z,8.43
2022-08-28T13:52:13.190Z,9.82
2022-08-28T13:53:17.226Z,7.90
2022-08-28T13:54:19.175Z,9.80
2022-08-28T13:55:21.862Z,6.63
2022-08-28T13:56:25.859Z,10.77
2022-08-28T13:57:27.906Z,9.00
2022-08-28T13:58:29.604Z,8.23
2022-08-28T13:59:31.924Z,7.03
2022-08-28T14:00:38.301Z,8.32
2022-08-28T14:01:58.773Z,6.67
2022-08-28T14:03:19.082Z,7.68
2022-08-28T14:04:20.828Z,6.38
2022-08-28T14:05:24.249Z,5.75
2022-08-28T14:06:31.520Z,9.60
2022-08-28T14:07:33.759Z,6.70
2022-08-28T14:08:35.688Z,7.07
2022-08-28T14:09:37.728Z,11.20
2022-08-28T14:10:40.280Z,11.77
2022-08-28T14:11:42.877Z,10.73
2022-08-28T14:12:46.941Z,6.43
2022-08-28T14:13:55.763Z,12.70
2022-08-28T14:14:57.820Z,7.68
2022-08-28T14:15:59.638Z,7.28
2022-08-28T14:17:01.988Z,8.57
2022-08-28T14:18:03.895Z,10.27
2022-08-28T14:19:06.485Z,5.68
2022-08-28T14:20:08.827Z,8.38
2022-08-28T14:21:10.563Z,8.65
2022-08-28T14:22:12.317Z,9.25
2022-08-28T14:23:14.237Z,9.50
2022-08-28T14:24:16.753Z,9.52
2022-08-28T14:25:18.559Z,6.78